KBED/BED METAR and TAF weather

Enter ICAO airport designator
Station Type Date Time Source
KBED METAR 2022/08/16 18:51 UTC NOAA

KBED 161851Z 08012KT 10SM SCT050 27/11 A3004 RMK AO2 SLP183 T02670106


Station Type Date Time Source
KBED Decoded METAR 2022/08/16 18:51 UTC NOAA

BEDFORD HANSCOM FIELD, MA, United States (KBED) 42-28N 071-18W 50M
Aug 16, 2022 - 02:51 PM EDT / 2022.08.16 1851 UTC
Wind: from the E (080 degrees) at 14 MPH (12 KT):0
Visibility: 10 mile(s):0
Sky conditions: partly cloudy
Temperature: 80.1 F (26.7 C)
Dew Point: 51.1 F (10.6 C)
Relative Humidity: 36%
Pressure (altimeter): 30.04 in. Hg (1017 hPa)
ob: KBED 161851Z 08012KT 10SM SCT050 27/11 A3004 RMK AO2 SLP183 T02670106
cycle: 19

Station Type Date Time Source
KBED TAF 2022/08/16 18:22 UTC NOAA

TAF KBED 161720Z 1618/1718 07011G18KT P6SM SCT240
FM162200 06008KT P6SM BKN210
FM170700 36005KT P6SM VCSH OVC050
FM171100 36008KT P6SM -SHRA OVC020
FM171400 01009KT 3SM -SHRA BR BKN012
FM171700 01010G21KT 5SM BR VCSH BKN026

Example: see airport list